createdAt,value
2022-12-08T00:08:29.633Z,12.6
2022-12-08T00:18:40.077Z,12.5
2022-12-08T00:28:48.421Z,12.6
2022-12-08T00:38:56.721Z,12.5
2022-12-08T00:49:05.073Z,12.4
2022-12-08T00:59:13.268Z,12.4
2022-12-08T01:09:21.599Z,12.3
2022-12-08T01:19:30.993Z,12.3
2022-12-08T01:29:39.370Z,12.2
2022-12-08T01:39:47.609Z,12.1
2022-12-08T01:49:55.631Z,12.1
2022-12-08T02:00:04.070Z,12
2022-12-08T02:10:11.075Z,12
2022-12-08T02:20:19.932Z,12
2022-12-08T02:30:28.333Z,12.1
2022-12-08T02:40:36.507Z,12
2022-12-08T02:50:44.783Z,11.9
2022-12-08T03:00:52.933Z,11.8
2022-12-08T03:11:01.031Z,11.9
2022-12-08T03:21:09.152Z,11.9
2022-12-08T03:31:17.409Z,12
2022-12-08T03:41:25.511Z,12
2022-12-08T03:51:33.871Z,12
2022-12-08T04:01:42.117Z,12
2022-12-08T04:11:50.580Z,11.8
2022-12-08T04:21:58.895Z,11.6
2022-12-08T04:32:07.179Z,11.5
2022-12-08T04:42:15.862Z,11.5
2022-12-08T04:52:16.659Z,11.5
2022-12-08T05:02:28.384Z,11.6
2022-12-08T05:12:26.730Z,11.4
2022-12-08T05:22:27.352Z,11.4
2022-12-08T05:32:35.533Z,11.3
2022-12-08T05:42:43.683Z,11.1
2022-12-08T05:52:51.940Z,11.1
2022-12-08T06:03:00.082Z,11.1
2022-12-08T06:13:08.273Z,11.1
2022-12-08T06:23:17.344Z,11.1
2022-12-08T06:33:26.762Z,11.2
2022-12-08T06:43:34.948Z,11.3
2022-12-08T06:53:43.025Z,11.4
2022-12-08T07:03:53.576Z,11.4
2022-12-08T07:14:00.964Z,11.5
2022-12-08T07:24:09.316Z,11.5
2022-12-08T07:34:18.003Z,11.3
2022-12-08T07:44:26.272Z,11.3
2022-12-08T07:54:28.691Z,11.3
2022-12-08T08:04:37.094Z,11.5
2022-12-08T08:14:45.232Z,11.8
2022-12-08T08:24:53.958Z,11.8
2022-12-08T08:35:02.275Z,11.9
2022-12-08T08:45:10.552Z,12.3
2022-12-08T08:55:21.422Z,12.4
2022-12-08T09:05:20.814Z,12.7
2022-12-08T09:15:22.746Z,13.2
2022-12-08T09:25:32.180Z,13.3
2022-12-08T09:35:40.481Z,13.4
2022-12-08T09:45:49.406Z,13.6
2022-12-08T09:55:58.922Z,14
2022-12-08T10:06:10.185Z,14.8
2022-12-08T10:16:15.316Z,15.2
2022-12-08T10:26:23.147Z,14.4
2022-12-08T10:36:21.595Z,14.1
2022-12-08T10:46:34.343Z,14
2022-12-08T11:06:33.975Z,14.1
2022-12-08T11:16:42.156Z,14.1
2022-12-08T11:26:55.352Z,14.5
2022-12-08T11:37:05.048Z,14.7
2022-12-08T11:57:09.021Z,14.7
2022-12-08T12:07:14.857Z,14.4
2022-12-08T12:17:17.705Z,14.3
2022-12-08T12:27:23.508Z,14.5
2022-12-08T12:37:28.511Z,14.3
2022-12-08T12:47:36.856Z,14
2022-12-08T12:57:44.953Z,13.9
2022-12-08T13:07:53.634Z,13.8
2022-12-08T13:18:01.938Z,14
2022-12-08T13:28:10.264Z,14.2
2022-12-08T13:38:19.778Z,14.3
2022-12-08T13:48:56.117Z,13.8
2022-12-08T13:58:34.517Z,13.7
2022-12-08T14:09:00.289Z,13.6
2022-12-08T14:18:49.415Z,13.5
2022-12-08T14:28:57.525Z,13.7
2022-12-08T14:39:05.990Z,13.5
2022-12-08T14:49:14.311Z,13.3
2022-12-08T14:59:22.490Z,13.3
2022-12-08T15:09:30.883Z,13
2022-12-08T15:19:39.092Z,13
2022-12-08T15:29:47.188Z,13.1
2022-12-08T15:39:55.222Z,13
2022-12-08T15:50:03.364Z,13.2
2022-12-08T16:00:24.509Z,13
2022-12-08T16:10:17.019Z,13.1
2022-12-08T16:20:32.873Z,13.1
2022-12-08T16:30:30.888Z,13.2
2022-12-08T16:40:40.203Z,13.3
2022-12-08T16:50:48.349Z,13.2
2022-12-08T17:00:56.441Z,13.2
2022-12-08T17:11:04.411Z,12.8
2022-12-08T17:21:12.549Z,12.9
2022-12-08T17:31:24.715Z,13.3
2022-12-08T17:41:28.301Z,13.6
2022-12-08T18:01:31.239Z,13.6
2022-12-08T18:11:39.756Z,13.5
2022-12-08T18:21:48.075Z,13.6
2022-12-08T18:31:56.489Z,13.7
2022-12-08T18:42:04.841Z,13.6
2022-12-08T18:52:13.309Z,13.4
2022-12-08T19:12:15.984Z,13.4
2022-12-08T19:22:24.337Z,13.4
2022-12-08T19:32:32.902Z,13.4
2022-12-08T19:42:41.228Z,13.3
2022-12-08T19:52:49.580Z,13.3
2022-12-08T20:02:58.186Z,13.3
2022-12-08T20:13:06.527Z,13.3
2022-12-08T20:23:16.224Z,13.3
2022-12-08T20:33:25.923Z,13.3
2022-12-08T20:43:35.958Z,13.2
2022-12-08T20:53:44.712Z,13.3
2022-12-08T21:03:56.313Z,13.4
2022-12-08T21:14:00.125Z,13.7
2022-12-08T21:24:09.017Z,13.8
2022-12-08T21:34:18.337Z,13.8
2022-12-08T21:44:27.825Z,13.9
2022-12-08T21:54:31.304Z,13.8
2022-12-08T22:04:40.162Z,13.8
2022-12-08T22:24:44.827Z,14
2022-12-08T22:34:51.033Z,14
2022-12-08T22:45:01.138Z,13.9
2022-12-08T22:55:11.734Z,13.8
2022-12-08T23:15:12.949Z,13.4
2022-12-08T23:25:21.670Z,13.4
2022-12-08T23:35:30.304Z,13.3
2022-12-08T23:45:39.381Z,13.1
2022-12-08T23:55:47.895Z,13.2
